Portada
METAR-TAF:

METAR-TAF

Aeroports :

Pittsburgh, Pennsilvània, Estats Units d'Amèrica

Pittsburgh International Airport

latitud: 40-30-14N, longitud: 080-15-59W, altitud: 366 m

Observació

L'informe es va fer fa 9 minuts, a les 19:51 UTC
Vent 15 kt del Nord/Nord-Oest amb ràfegues de 19 kt
Temperatura 11°C
Humitat 30%
Pressió 1029 hPa
Visibilitat: 16.1 km
Cel clar

METAR: KPIT 201951Z 33015G19KT 10SM CLR 11/M06 A3038 RMK AO2 SLP302 T01111061

Hora: 16:00 (20:00 UTC)

Pronòstic

L'informe es va fer fa 1 hora i 3 minuts, a les 18:57 UTC
Pronòstic vàlid del 20 a les 19 UTC al 21 a les 24 UTC
Vent 11 kt del Oest/Nord-Oest amb ràfegues de 20 kt
Visibilitat: 10 km
Cel clar
A partir de les 20 a les 2300 UTC
Vent 6 kt del Nord/Nord-Oest
Visibilitat: 10 km
Cel clar

TAF: KPIT 201857Z 2019/2124 30011G20KT P6SM SKC FM202300 34006KT P6SM SKC

Observacions i pronòstics meteorològics de més de 4000 aeroports (METAR i TAF).

Les estacions disponibles són els punts grocs i vermells al mapa.

Posi el ratolí al punt desitjat per veure el nom de l'estació.

Feu clic per veure les observacions i els pronòstics meteorològics.

Per canviar el mapa: feu clic els botons verds amb una creu de color negre per apropar; al botó verd amb un guió per allunyar la imatge; o en les fletxes verdes per a mapes adjacents.


METAR-TAF: